DLH15T EDDF-LEBL
Flight info
| Callsign | DLH15T |
|---|---|
| Flight time | N/A |
| Altitude | 37000 |
| Route | ANEKI2L/18 ANEKI Y163 HERBI Y164 MOPAN DCT LUTIX DCT BENOT DCT NEMOS DCT GEVEA/N0384F270 DCT INCUS DCT BALSI/N0425F350 DCT RETNO DCT TUPOX DCT MTG DCT DIVKO/N0429F370 DCT NILDU DCT BISBA |
| Aircraft | A320/M-SDE3FGHIRWY/LB1 |
Departure
| Time | 2026-04-15 10:53 |
|---|---|
| Airport | Frankfurt Main Airport (EDDF) |
Arrival
| Time | N/A |
|---|---|
| Airport | Josep Tarradellas Barcelona-El Prat Airport (LEBL) |
| Time | Latitude | Longitude | Altitude | Speed | Heading |
|---|---|---|---|---|---|
| 2026-04-15 10:19 | 50.04737 | 8.56737 | 356 ft | 0 kts | 115° |
| 2026-04-15 10:28 | 50.04737 | 8.56736 | 356 ft | 0 kts | 115° |
| 2026-04-15 10:41 | 50.04742 | 8.56713 | 364 ft | 4 kts | 109° |
| 2026-04-15 10:42 | 50.04752 | 8.56679 | 360 ft | 4 kts | 143° |
| 2026-04-15 10:42 | 50.04775 | 8.56671 | 360 ft | 4 kts | 197° |
| 2026-04-15 10:42 | 50.04788 | 8.56678 | 357 ft | 0 kts | 205° |
| 2026-04-15 10:44 | 50.04779 | 8.56672 | 359 ft | 7 kts | 205° |
| 2026-04-15 10:44 | 50.04722 | 8.56587 | 362 ft | 15 kts | 233° |
| 2026-04-15 10:45 | 50.04664 | 8.56423 | 359 ft | 19 kts | 250° |
| 2026-04-15 10:45 | 50.04616 | 8.56220 | 357 ft | 21 kts | 249° |
| 2026-04-15 10:45 | 50.04562 | 8.55999 | 359 ft | 22 kts | 244° |
| 2026-04-15 10:45 | 50.04455 | 8.55921 | 358 ft | 15 kts | 196° |
| 2026-04-15 10:46 | 50.04363 | 8.55916 | 359 ft | 14 kts | 163° |
| 2026-04-15 10:46 | 50.04248 | 8.55944 | 361 ft | 19 kts | 207° |
| 2026-04-15 10:46 | 50.04121 | 8.55952 | 358 ft | 19 kts | 160° |
| 2026-04-15 10:46 | 50.04027 | 8.55860 | 350 ft | 19 kts | 250° |
| 2026-04-15 10:47 | 50.03979 | 8.55656 | 353 ft | 23 kts | 250° |
| 2026-04-15 10:47 | 50.03919 | 8.55409 | 358 ft | 25 kts | 250° |
| 2026-04-15 10:47 | 50.03857 | 8.55148 | 351 ft | 26 kts | 250° |
| 2026-04-15 10:47 | 50.03793 | 8.54882 | 358 ft | 24 kts | 249° |
| 2026-04-15 10:48 | 50.03732 | 8.54624 | 353 ft | 27 kts | 249° |
| 2026-04-15 10:48 | 50.03686 | 8.54434 | 352 ft | 28 kts | 249° |
| 2026-04-15 10:48 | 50.03628 | 8.54191 | 351 ft | 25 kts | 249° |
| 2026-04-15 10:48 | 50.03566 | 8.53932 | 341 ft | 27 kts | 250° |
| 2026-04-15 10:49 | 50.03499 | 8.53652 | 336 ft | 29 kts | 249° |
| 2026-04-15 10:49 | 50.03428 | 8.53355 | 335 ft | 30 kts | 250° |
| 2026-04-15 10:49 | 50.03366 | 8.53093 | 335 ft | 20 kts | 249° |
| 2026-04-15 10:49 | 50.03316 | 8.52886 | 332 ft | 19 kts | 250° |
| 2026-04-15 10:50 | 50.03283 | 8.52748 | 331 ft | 0 kts | 249° |
| 2026-04-15 10:50 | 50.03266 | 8.52687 | 334 ft | 15 kts | 240° |
| 2026-04-15 10:50 | 50.03185 | 8.52598 | 332 ft | 14 kts | 188° |
| 2026-04-15 10:51 | 50.03146 | 8.52596 | 332 ft | 0 kts | 178° |
| 2026-04-15 10:52 | 50.03144 | 8.52596 | 332 ft | 2 kts | 179° |
| 2026-04-15 10:52 | 50.02919 | 8.52598 | 331 ft | 71 kts | 179° |
| 2026-04-15 10:53 | 50.02198 | 8.52604 | 335 ft | 133 kts | 180° |
| 2026-04-15 10:53 | 50.01108 | 8.52613 | 399 ft | 174 kts | 178° |
| 2026-04-15 10:53 | 49.99891 | 8.52644 | 1033 ft | 175 kts | 176° |
| 2026-04-15 10:53 | 49.98659 | 8.52709 | 1693 ft | 182 kts | 176° |
| 2026-04-15 10:54 | 49.97326 | 8.52821 | 2057 ft | 201 kts | 175° |
| 2026-04-15 10:54 | 49.95856 | 8.52943 | 2424 ft | 221 kts | 176° |
| 2026-04-15 10:54 | 49.94290 | 8.53058 | 3175 ft | 227 kts | 176° |
| 2026-04-15 10:54 | 49.92701 | 8.53167 | 4066 ft | 229 kts | 175° |
| 2026-04-15 10:55 | 49.91103 | 8.53275 | 4978 ft | 230 kts | 176° |
| 2026-04-15 10:55 | 49.89499 | 8.53385 | 5880 ft | 231 kts | 177° |
| 2026-04-15 10:55 | 49.87892 | 8.53493 | 6771 ft | 233 kts | 178° |
| 2026-04-15 10:55 | 49.86259 | 8.53603 | 7544 ft | 237 kts | 178° |
| 2026-04-15 10:56 | 49.84599 | 8.53715 | 8339 ft | 241 kts | 178° |
| 2026-04-15 10:56 | 49.82909 | 8.53827 | 9135 ft | 245 kts | 178° |
| 2026-04-15 10:56 | 49.81188 | 8.53944 | 9945 ft | 250 kts | 178° |
| 2026-04-15 10:56 | 49.79439 | 8.54065 | 10704 ft | 253 kts | 178° |
| 2026-04-15 10:57 | 49.77664 | 8.54098 | 11418 ft | 259 kts | 185° |
| 2026-04-15 10:57 | 49.73752 | 8.53581 | 11976 ft | 306 kts | 186° |
| 2026-04-15 10:57 | 49.71551 | 8.53277 | 12250 ft | 327 kts | 186° |
| 2026-04-15 10:58 | 49.69248 | 8.52968 | 12842 ft | 336 kts | 186° |
| 2026-04-15 10:58 | 49.66900 | 8.52655 | 13563 ft | 341 kts | 186° |
| 2026-04-15 10:58 | 49.64524 | 8.52339 | 14254 ft | 345 kts | 186° |
| 2026-04-15 10:58 | 49.62146 | 8.52021 | 14872 ft | 349 kts | 186° |
| 2026-04-15 10:59 | 49.59681 | 8.51694 | 15512 ft | 353 kts | 185° |
| 2026-04-15 10:59 | 49.57216 | 8.51369 | 16152 ft | 357 kts | 185° |
| 2026-04-15 10:59 | 49.54729 | 8.51046 | 16789 ft | 361 kts | 185° |
| 2026-04-15 10:59 | 49.52217 | 8.50721 | 17415 ft | 364 kts | 185° |
| 2026-04-15 11:00 | 49.49677 | 8.50392 | 18062 ft | 368 kts | 185° |
| 2026-04-15 11:00 | 49.47115 | 8.50057 | 18671 ft | 371 kts | 185° |
| 2026-04-15 11:00 | 49.44563 | 8.49723 | 19195 ft | 375 kts | 185° |
| 2026-04-15 11:00 | 49.41951 | 8.49379 | 19717 ft | 379 kts | 186° |
| 2026-04-15 11:01 | 49.39310 | 8.49032 | 20233 ft | 383 kts | 185° |
| 2026-04-15 11:01 | 49.36645 | 8.48680 | 20744 ft | 387 kts | 186° |
| 2026-04-15 11:01 | 49.33951 | 8.48328 | 21249 ft | 390 kts | 185° |
| 2026-04-15 11:01 | 49.31234 | 8.47979 | 21752 ft | 394 kts | 186° |
| 2026-04-15 11:02 | 49.28495 | 8.47626 | 22266 ft | 396 kts | 185° |
| 2026-04-15 11:02 | 49.25739 | 8.47267 | 22750 ft | 400 kts | 186° |
| 2026-04-15 11:02 | 49.22954 | 8.46904 | 23238 ft | 403 kts | 186° |
| 2026-04-15 11:02 | 49.20151 | 8.46537 | 23697 ft | 407 kts | 186° |
| 2026-04-15 11:03 | 49.17315 | 8.46166 | 24087 ft | 411 kts | 186° |
| 2026-04-15 11:03 | 49.14459 | 8.45795 | 24473 ft | 414 kts | 186° |
| 2026-04-15 11:03 | 49.11578 | 8.45421 | 24850 ft | 417 kts | 186° |
| 2026-04-15 11:03 | 49.08676 | 8.45046 | 25214 ft | 420 kts | 186° |
| 2026-04-15 11:04 | 49.05761 | 8.44522 | 25570 ft | 423 kts | 192° |
| 2026-04-15 11:04 | 49.02879 | 8.43535 | 25924 ft | 426 kts | 194° |
| 2026-04-15 11:04 | 48.99981 | 8.42519 | 26283 ft | 429 kts | 194° |
| 2026-04-15 11:04 | 48.97058 | 8.41502 | 26617 ft | 433 kts | 194° |
| 2026-04-15 11:05 | 48.94109 | 8.40477 | 26957 ft | 436 kts | 194° |
| 2026-04-15 11:05 | 48.91139 | 8.39446 | 27308 ft | 440 kts | 194° |
| 2026-04-15 11:05 | 48.88146 | 8.38408 | 27657 ft | 443 kts | 194° |
| 2026-04-15 11:05 | 48.85173 | 8.37380 | 27997 ft | 446 kts | 194° |
| 2026-04-15 11:06 | 48.82135 | 8.36330 | 28332 ft | 449 kts | 195° |
| 2026-04-15 11:06 | 48.79078 | 8.35271 | 28668 ft | 452 kts | 195° |
| 2026-04-15 11:06 | 48.76003 | 8.34187 | 28978 ft | 456 kts | 195° |
| 2026-04-15 11:06 | 48.72905 | 8.33063 | 29284 ft | 459 kts | 195° |
| 2026-04-15 11:07 | 48.69792 | 8.31918 | 29611 ft | 462 kts | 196° |
| 2026-04-15 11:07 | 48.66660 | 8.30762 | 29935 ft | 465 kts | 196° |
| 2026-04-15 11:07 | 48.63505 | 8.29600 | 30244 ft | 468 kts | 196° |
| 2026-04-15 11:07 | 48.60330 | 8.28439 | 30508 ft | 471 kts | 196° |
| 2026-04-15 11:08 | 48.57132 | 8.27278 | 30762 ft | 474 kts | 196° |
| 2026-04-15 11:08 | 48.53921 | 8.26113 | 31025 ft | 476 kts | 195° |
| 2026-04-15 11:08 | 48.50696 | 8.24945 | 31281 ft | 478 kts | 195° |
| 2026-04-15 11:08 | 48.47454 | 8.23770 | 31534 ft | 480 kts | 196° |
| 2026-04-15 11:09 | 48.44202 | 8.22582 | 31816 ft | 481 kts | 196° |
| 2026-04-15 11:09 | 48.40953 | 8.21388 | 32186 ft | 480 kts | 196° |
| 2026-04-15 11:09 | 48.37705 | 8.20193 | 32541 ft | 480 kts | 196° |
| 2026-04-15 11:09 | 48.34459 | 8.19005 | 32855 ft | 481 kts | 195° |
| 2026-04-15 11:10 | 48.31208 | 8.17827 | 33164 ft | 481 kts | 195° |
| 2026-04-15 11:10 | 48.27953 | 8.16654 | 33497 ft | 481 kts | 195° |
| 2026-04-15 11:10 | 48.24740 | 8.15289 | 33834 ft | 479 kts | 202° |
| 2026-04-15 11:10 | 48.21702 | 8.13299 | 34159 ft | 476 kts | 210° |
| 2026-04-15 11:11 | 48.18739 | 8.11090 | 34481 ft | 476 kts | 210° |
| 2026-04-15 11:11 | 48.15778 | 8.08888 | 34774 ft | 475 kts | 209° |
| 2026-04-15 11:11 | 48.12812 | 8.06690 | 35046 ft | 475 kts | 209° |
| 2026-04-15 11:11 | 48.09846 | 8.04502 | 35310 ft | 475 kts | 209° |
| 2026-04-15 11:12 | 48.06879 | 8.02319 | 35580 ft | 475 kts | 209° |
| 2026-04-15 11:12 | 48.03912 | 8.00141 | 35851 ft | 475 kts | 209° |
| 2026-04-15 11:12 | 48.00950 | 7.97971 | 36118 ft | 474 kts | 209° |
| 2026-04-15 11:12 | 47.97985 | 7.95801 | 36354 ft | 474 kts | 209° |
| 2026-04-15 11:13 | 47.95028 | 7.93634 | 36587 ft | 474 kts | 209° |
| 2026-04-15 11:13 | 47.92064 | 7.91463 | 36809 ft | 474 kts | 209° |
| 2026-04-15 11:13 | 47.89102 | 7.89294 | 37027 ft | 475 kts | 208° |
| 2026-04-15 11:13 | 47.86134 | 7.87125 | 37198 ft | 475 kts | 208° |
| 2026-04-15 11:14 | 47.85132 | 7.86393 | 37213 ft | 474 kts | 208° |